sensor_id;sensor_type;location;lat;lon;timestamp;P1;durP1;ratioP1;P2;durP2;ratioP2
5630;SDS011;2837;50.990;7.124;2023-02-27T06:00:45;163.47;;;6.93;;
5630;SDS011;2837;50.990;7.124;2023-02-27T06:03:17;164.27;;;7.40;;
5630;SDS011;2837;50.990;7.124;2023-02-27T06:05:42;163.80;;;7.40;;
5630;SDS011;2837;50.990;7.124;2023-02-27T06:08:09;163.80;;;7.57;;
5630;SDS011;2837;50.990;7.124;2023-02-27T06:10:35;164.90;;;7.43;;
5630;SDS011;2837;50.990;7.124;2023-02-27T06:13:02;164.37;;;7.33;;
5630;SDS011;2837;50.990;7.124;2023-02-27T06:15:28;167.83;;;7.80;;
5630;SDS011;2837;50.990;7.124;2023-02-27T06:17:54;167.47;;;7.10;;
5630;SDS011;2837;50.990;7.124;2023-02-27T06:20:20;164.47;;;7.50;;
5630;SDS011;2837;50.990;7.124;2023-02-27T06:22:46;163.90;;;7.07;;
5630;SDS011;2837;50.990;7.124;2023-02-27T06:25:11;165.00;;;7.87;;
5630;SDS011;2837;50.990;7.124;2023-02-27T06:27:37;164.60;;;7.40;;
5630;SDS011;2837;50.990;7.124;2023-02-27T06:30:03;164.13;;;7.27;;
5630;SDS011;2837;50.990;7.124;2023-02-27T06:32:31;165.90;;;7.63;;
5630;SDS011;2837;50.990;7.124;2023-02-27T06:34:56;165.63;;;7.27;;
5630;SDS011;2837;50.990;7.124;2023-02-27T06:37:22;163.37;;;6.97;;
5630;SDS011;2837;50.990;7.124;2023-02-27T06:39:48;164.57;;;7.53;;
5630;SDS011;2837;50.990;7.124;2023-02-27T06:42:13;164.20;;;7.43;;
5630;SDS011;2837;50.990;7.124;2023-02-27T06:44:39;167.00;;;7.40;;
5630;SDS011;2837;50.990;7.124;2023-02-27T06:47:04;164.67;;;7.63;;
5630;SDS011;2837;50.990;7.124;2023-02-27T06:49:30;164.40;;;7.50;;
5630;SDS011;2837;50.990;7.124;2023-02-27T06:51:56;164.73;;;7.50;;
5630;SDS011;2837;50.990;7.124;2023-02-27T06:54:21;165.00;;;7.97;;
5630;SDS011;2837;50.990;7.124;2023-02-27T06:56:47;165.23;;;7.50;;
5630;SDS011;2837;50.990;7.124;2023-02-27T06:59:12;165.07;;;7.50;;
5630;SDS011;2837;50.990;7.124;2023-02-27T07:01:38;166.27;;;7.57;;
5630;SDS011;2837;50.990;7.124;2023-02-27T07:04:04;164.47;;;7.90;;
5630;SDS011;2837;50.990;7.124;2023-02-27T07:06:29;163.70;;;7.20;;
5630;SDS011;2837;50.990;7.124;2023-02-27T07:08:55;164.77;;;7.77;;
5630;SDS011;2837;50.990;7.124;2023-02-27T07:11:20;165.87;;;8.27;;
5630;SDS011;2837;50.990;7.124;2023-02-27T07:13:46;167.87;;;9.07;;
5630;SDS011;2837;50.990;7.124;2023-02-27T07:16:11;167.87;;;8.90;;
5630;SDS011;2837;50.990;7.124;2023-02-27T07:18:37;166.20;;;8.47;;
5630;SDS011;2837;50.990;7.124;2023-02-27T07:21:02;165.77;;;7.97;;
5630;SDS011;2837;50.990;7.124;2023-02-27T07:23:28;165.87;;;8.40;;
5630;SDS011;2837;50.990;7.124;2023-02-27T07:25:53;168.77;;;8.90;;
5630;SDS011;2837;50.990;7.124;2023-02-27T07:28:19;168.20;;;8.17;;
5630;SDS011;2837;50.990;7.124;2023-02-27T07:30:45;165.10;;;7.93;;
5630;SDS011;2837;50.990;7.124;2023-02-27T07:33:10;165.07;;;7.93;;
5630;SDS011;2837;50.990;7.124;2023-02-27T07:35:36;164.47;;;7.70;;
5630;SDS011;2837;50.990;7.124;2023-02-27T07:38:02;165.77;;;8.53;;
5630;SDS011;2837;50.990;7.124;2023-02-27T07:40:28;164.10;;;7.77;;
5630;SDS011;2837;50.990;7.124;2023-02-27T07:42:53;163.90;;;7.40;;
5630;SDS011;2837;50.990;7.124;2023-02-27T07:45:19;166.17;;;8.20;;
5630;SDS011;2837;50.990;7.124;2023-02-27T07:47:46;178.00;;;7.70;;
5630;SDS011;2837;50.990;7.124;2023-02-27T07:50:12;164.47;;;8.00;;
5630;SDS011;2837;50.990;7.124;2023-02-27T07:52:41;164.10;;;7.90;;
5630;SDS011;2837;50.990;7.124;2023-02-27T07:55:08;163.73;;;7.57;;
5630;SDS011;2837;50.990;7.124;2023-02-27T07:57:35;167.60;;;8.17;;
5630;SDS011;2837;50.990;7.124;2023-02-27T08:00:02;164.27;;;8.03;;
5630;SDS011;2837;50.990;7.124;2023-02-27T08:02:30;168.10;;;9.23;;
5630;SDS011;2837;50.990;7.124;2023-02-27T08:04:56;163.17;;;7.33;;
5630;SDS011;2837;50.990;7.124;2023-02-27T08:07:22;165.23;;;8.07;;
5630;SDS011;2837;50.990;7.124;2023-02-27T08:09:47;164.77;;;8.10;;
5630;SDS011;2837;50.990;7.124;2023-02-27T08:12:13;163.67;;;7.80;;
5630;SDS011;2837;50.990;7.124;2023-02-27T08:14:39;164.20;;;7.60;;
5630;SDS011;2837;50.990;7.124;2023-02-27T08:17:04;163.00;;;7.30;;
5630;SDS011;2837;50.990;7.124;2023-02-27T08:19:30;162.07;;;7.00;;
5630;SDS011;2837;50.990;7.124;2023-02-27T08:21:55;162.70;;;7.23;;
5630;SDS011;2837;50.990;7.124;2023-02-27T08:24:21;163.10;;;7.47;;
5630;SDS011;2837;50.990;7.124;2023-02-27T08:26:46;162.63;;;7.43;;
5630;SDS011;2837;50.990;7.124;2023-02-27T08:29:12;163.00;;;7.07;;
5630;SDS011;2837;50.990;7.124;2023-02-27T08:31:38;163.47;;;7.30;;
5630;SDS011;2837;50.990;7.124;2023-02-27T08:34:03;162.40;;;7.40;;
5630;SDS011;2837;50.990;7.124;2023-02-27T08:36:29;161.67;;;6.70;;
5630;SDS011;2837;50.990;7.124;2023-02-27T08:38:54;160.83;;;6.90;;
5630;SDS011;2837;50.990;7.124;2023-02-27T08:41:20;162.17;;;7.00;;
5630;SDS011;2837;50.990;7.124;2023-02-27T08:43:46;162.37;;;7.10;;
5630;SDS011;2837;50.990;7.124;2023-02-27T08:46:12;161.83;;;7.00;;
5630;SDS011;2837;50.990;7.124;2023-02-27T08:48:37;160.77;;;6.60;;
5630;SDS011;2837;50.990;7.124;2023-02-27T08:51:03;161.10;;;6.37;;
5630;SDS011;2837;50.990;7.124;2023-02-27T08:53:29;160.93;;;6.70;;
5630;SDS011;2837;50.990;7.124;2023-02-27T08:55:54;160.43;;;6.67;;
5630;SDS011;2837;50.990;7.124;2023-02-27T08:58:20;161.07;;;6.70;;
5630;SDS011;2837;50.990;7.124;2023-02-27T09:00:46;160.67;;;6.37;;
5630;SDS011;2837;50.990;7.124;2023-02-27T09:03:11;161.77;;;6.70;;
5630;SDS011;2837;50.990;7.124;2023-02-27T09:05:37;159.97;;;6.40;;
5630;SDS011;2837;50.990;7.124;2023-02-27T09:08:03;161.57;;;6.80;;
5630;SDS011;2837;50.990;7.124;2023-02-27T09:10:30;160.90;;;7.07;;
5630;SDS011;2837;50.990;7.124;2023-02-27T09:12:57;159.77;;;6.53;;
5630;SDS011;2837;50.990;7.124;2023-02-27T09:15:23;160.93;;;6.80;;
5630;SDS011;2837;50.990;7.124;2023-02-27T09:17:48;160.03;;;6.60;;
5630;SDS011;2837;50.990;7.124;2023-02-27T09:20:14;159.77;;;6.80;;
5630;SDS011;2837;50.990;7.124;2023-02-27T09:22:40;159.57;;;6.30;;
5630;SDS011;2837;50.990;7.124;2023-02-27T09:25:06;159.70;;;6.37;;
5630;SDS011;2837;50.990;7.124;2023-02-27T09:27:33;164.20;;;6.47;;
5630;SDS011;2837;50.990;7.124;2023-02-27T09:29:59;160.43;;;6.70;;
5630;SDS011;2837;50.990;7.124;2023-02-27T09:32:24;159.93;;;6.43;;
5630;SDS011;2837;50.990;7.124;2023-02-27T09:34:50;159.70;;;6.33;;
5630;SDS011;2837;50.990;7.124;2023-02-27T09:37:16;161.10;;;6.33;;
5630;SDS011;2837;50.990;7.124;2023-02-27T09:39:44;159.37;;;6.40;;
5630;SDS011;2837;50.990;7.124;2023-02-27T09:44:44;159.47;;;6.90;;
5630;SDS011;2837;50.990;7.124;2023-02-27T09:47:17;161.33;;;6.80;;
5630;SDS011;2837;50.990;7.124;2023-02-27T09:52:46;160.43;;;6.97;;
5630;SDS011;2837;50.990;7.124;2023-02-27T09:55:14;160.17;;;6.90;;
5630;SDS011;2837;50.990;7.124;2023-02-27T10:00:55;159.47;;;6.90;;
5630;SDS011;2837;50.990;7.124;2023-02-27T10:06:24;159.23;;;6.40;;
5630;SDS011;2837;50.990;7.124;2023-02-27T10:09:05;159.67;;;6.80;;
5630;SDS011;2837;50.990;7.124;2023-02-27T10:14:44;159.27;;;6.50;;
5630;SDS011;2837;50.990;7.124;2023-02-27T10:17:30;160.40;;;6.60;;
5630;SDS011;2837;50.990;7.124;2023-02-27T10:20:00;160.67;;;7.27;;
5630;SDS011;2837;50.990;7.124;2023-02-27T10:22:34;159.17;;;6.57;;
5630;SDS011;2837;50.990;7.124;2023-02-27T10:25:06;160.97;;;6.80;;
5630;SDS011;2837;50.990;7.124;2023-02-27T10:27:37;159.13;;;6.60;;
5630;SDS011;2837;50.990;7.124;2023-02-27T10:30:15;159.17;;;6.50;;
5630;SDS011;2837;50.990;7.124;2023-02-27T10:32:42;159.17;;;6.43;;
5630;SDS011;2837;50.990;7.124;2023-02-27T10:37:55;159.37;;;7.00;;
5630;SDS011;2837;50.990;7.124;2023-02-27T10:40:24;159.07;;;6.33;;
5630;SDS011;2837;50.990;7.124;2023-02-27T10:42:51;159.47;;;7.10;;
5630;SDS011;2837;50.990;7.124;2023-02-27T10:45:18;161.00;;;6.87;;
5630;SDS011;2837;50.990;7.124;2023-02-27T10:47:44;159.13;;;6.90;;
5630;SDS011;2837;50.990;7.124;2023-02-27T10:52:51;158.63;;;6.60;;
5630;SDS011;2837;50.990;7.124;2023-02-27T10:55:37;158.97;;;6.60;;
5630;SDS011;2837;50.990;7.124;2023-02-27T10:58:17;159.93;;;7.03;;
5630;SDS011;2837;50.990;7.124;2023-02-27T11:03:21;159.40;;;6.97;;
5630;SDS011;2837;50.990;7.124;2023-02-27T11:05:54;159.00;;;6.70;;
5630;SDS011;2837;50.990;7.124;2023-02-27T11:08:27;159.63;;;6.60;;
5630;SDS011;2837;50.990;7.124;2023-02-27T11:10:55;158.40;;;6.60;;
5630;SDS011;2837;50.990;7.124;2023-02-27T11:13:23;158.97;;;6.60;;
5630;SDS011;2837;50.990;7.124;2023-02-27T11:16:01;158.63;;;6.33;;
5630;SDS011;2837;50.990;7.124;2023-02-27T11:18:33;158.87;;;6.60;;
5630;SDS011;2837;50.990;7.124;2023-02-27T11:21:08;159.27;;;6.70;;
5630;SDS011;2837;50.990;7.124;2023-02-27T11:23:34;159.40;;;7.17;;
5630;SDS011;2837;50.990;7.124;2023-02-27T11:31:39;158.43;;;6.60;;
5630;SDS011;2837;50.990;7.124;2023-02-27T11:34:24;159.60;;;6.80;;
5630;SDS011;2837;50.990;7.124;2023-02-27T11:36:56;158.10;;;6.17;;
5630;SDS011;2837;50.990;7.124;2023-02-27T11:39:34;158.77;;;6.60;;
5630;SDS011;2837;50.990;7.124;2023-02-27T11:42:10;159.70;;;7.17;;
5630;SDS011;2837;50.990;7.124;2023-02-27T11:44:36;158.67;;;6.73;;
5630;SDS011;2837;50.990;7.124;2023-02-27T11:47:15;158.63;;;6.83;;
5630;SDS011;2837;50.990;7.124;2023-02-27T11:52:28;158.27;;;6.77;;
5630;SDS011;2837;50.990;7.124;2023-02-27T11:55:02;159.40;;;8.03;;
5630;SDS011;2837;50.990;7.124;2023-02-27T11:57:35;160.27;;;8.40;;
5630;SDS011;2837;50.990;7.124;2023-02-27T12:00:06;158.40;;;7.13;;
5630;SDS011;2837;50.990;7.124;2023-02-27T12:05:23;158.13;;;7.13;;
5630;SDS011;2837;50.990;7.124;2023-02-27T12:11:05;157.47;;;6.87;;
5630;SDS011;2837;50.990;7.124;2023-02-27T12:13:39;157.97;;;6.90;;
5630;SDS011;2837;50.990;7.124;2023-02-27T12:21:53;157.87;;;6.90;;
5630;SDS011;2837;50.990;7.124;2023-02-27T12:29:46;157.93;;;7.17;;
5630;SDS011;2837;50.990;7.124;2023-02-27T12:35:16;158.83;;;7.07;;
5630;SDS011;2837;50.990;7.124;2023-02-27T12:37:42;157.87;;;7.30;;
5630;SDS011;2837;50.990;7.124;2023-02-27T12:40:15;156.97;;;6.50;;
5630;SDS011;2837;50.990;7.124;2023-02-27T12:51:04;162.40;;;7.00;;
5630;SDS011;2837;50.990;7.124;2023-02-27T13:00:09;157.03;;;6.67;;
5630;SDS011;2837;50.990;7.124;2023-02-27T13:05:30;157.80;;;6.90;;
5630;SDS011;2837;50.990;7.124;2023-02-27T13:13:39;157.13;;;6.97;;
5630;SDS011;2837;50.990;7.124;2023-02-27T13:21:17;157.27;;;7.03;;
5630;SDS011;2837;50.990;7.124;2023-02-27T13:26:47;157.33;;;6.40;;
5630;SDS011;2837;50.990;7.124;2023-02-27T13:29:18;157.00;;;6.17;;
5630;SDS011;2837;50.990;7.124;2023-02-27T13:34:51;157.97;;;7.07;;
5630;SDS011;2837;50.990;7.124;2023-02-27T13:37:21;158.30;;;7.00;;
5630;SDS011;2837;50.990;7.124;2023-02-27T13:44:55;158.00;;;7.00;;
5630;SDS011;2837;50.990;7.124;2023-02-27T13:47:46;156.80;;;6.37;;
5630;SDS011;2837;50.990;7.124;2023-02-27T13:52:42;156.87;;;6.67;;
5630;SDS011;2837;50.990;7.124;2023-02-27T13:58:01;157.80;;;6.40;;
5630;SDS011;2837;50.990;7.124;2023-02-27T14:00:30;156.37;;;6.60;;
5630;SDS011;2837;50.990;7.124;2023-02-27T14:02:58;156.57;;;6.40;;
5630;SDS011;2837;50.990;7.124;2023-02-27T14:05:34;157.27;;;7.00;;
5630;SDS011;2837;50.990;7.124;2023-02-27T14:10:36;156.87;;;6.47;;
5630;SDS011;2837;50.990;7.124;2023-02-27T14:13:04;156.60;;;6.50;;
5630;SDS011;2837;50.990;7.124;2023-02-27T14:15:52;158.07;;;6.80;;
5630;SDS011;2837;50.990;7.124;2023-02-27T14:19:05;159.50;;;6.60;;
5630;SDS011;2837;50.990;7.124;2023-02-27T14:21:48;158.17;;;7.03;;
5630;SDS011;2837;50.990;7.124;2023-02-27T14:24:14;156.93;;;6.60;;
5630;SDS011;2837;50.990;7.124;2023-02-27T14:26:42;157.10;;;7.13;;
5630;SDS011;2837;50.990;7.124;2023-02-27T14:29:17;157.07;;;6.43;;
5630;SDS011;2837;50.990;7.124;2023-02-27T14:31:47;156.53;;;6.50;;
5630;SDS011;2837;50.990;7.124;2023-02-27T14:34:13;156.70;;;6.57;;
5630;SDS011;2837;50.990;7.124;2023-02-27T14:36:43;156.17;;;6.23;;
5630;SDS011;2837;50.990;7.124;2023-02-27T14:39:18;156.50;;;6.70;;
5630;SDS011;2837;50.990;7.124;2023-02-27T14:44:41;156.40;;;6.70;;
5630;SDS011;2837;50.990;7.124;2023-02-27T14:47:13;158.37;;;7.07;;
5630;SDS011;2837;50.990;7.124;2023-02-27T14:49:44;157.57;;;6.30;;
5630;SDS011;2837;50.990;7.124;2023-02-27T14:54:49;157.67;;;6.70;;
5630;SDS011;2837;50.990;7.124;2023-02-27T14:57:16;157.17;;;6.77;;
5630;SDS011;2837;50.990;7.124;2023-02-27T14:59:47;156.57;;;5.93;;
5630;SDS011;2837;50.990;7.124;2023-02-27T15:02:27;155.90;;;6.20;;
5630;SDS011;2837;50.990;7.124;2023-02-27T15:07:33;161.37;;;6.70;;
5630;SDS011;2837;50.990;7.124;2023-02-27T15:10:00;156.17;;;6.30;;
5630;SDS011;2837;50.990;7.124;2023-02-27T15:12:28;157.03;;;6.70;;
5630;SDS011;2837;50.990;7.124;2023-02-27T15:14:58;157.17;;;6.40;;
5630;SDS011;2837;50.990;7.124;2023-02-27T15:17:27;156.30;;;6.40;;
5630;SDS011;2837;50.990;7.124;2023-02-27T15:20:02;161.73;;;7.10;;
5630;SDS011;2837;50.990;7.124;2023-02-27T15:22:46;160.40;;;7.20;;
5630;SDS011;2837;50.990;7.124;2023-02-27T15:28:02;160.07;;;7.47;;
5630;SDS011;2837;50.990;7.124;2023-02-27T15:30:41;157.47;;;6.90;;
5630;SDS011;2837;50.990;7.124;2023-02-27T15:33:15;157.03;;;6.77;;
5630;SDS011;2837;50.990;7.124;2023-02-27T15:35:45;157.77;;;6.63;;
5630;SDS011;2837;50.990;7.124;2023-02-27T15:38:28;156.67;;;6.70;;
5630;SDS011;2837;50.990;7.124;2023-02-27T15:40:56;156.87;;;6.70;;
5630;SDS011;2837;50.990;7.124;2023-02-27T15:43:22;158.37;;;7.17;;
5630;SDS011;2837;50.990;7.124;2023-02-27T15:45:49;157.57;;;6.70;;
5630;SDS011;2837;50.990;7.124;2023-02-27T15:48:16;157.50;;;6.83;;
5630;SDS011;2837;50.990;7.124;2023-02-27T15:50:48;157.77;;;6.67;;
5630;SDS011;2837;50.990;7.124;2023-02-27T15:53:22;157.00;;;6.40;;
5630;SDS011;2837;50.990;7.124;2023-02-27T15:55:52;156.30;;;6.80;;
5630;SDS011;2837;50.990;7.124;2023-02-27T15:58:22;157.20;;;6.60;;
5630;SDS011;2837;50.990;7.124;2023-02-27T16:00:50;158.47;;;6.57;;
5630;SDS011;2837;50.990;7.124;2023-02-27T16:03:43;157.07;;;6.57;;
5630;SDS011;2837;50.990;7.124;2023-02-27T16:06:21;158.47;;;7.40;;
5630;SDS011;2837;50.990;7.124;2023-02-27T16:08:56;157.27;;;6.50;;
5630;SDS011;2837;50.990;7.124;2023-02-27T16:11:25;157.30;;;6.60;;
5630;SDS011;2837;50.990;7.124;2023-02-27T16:13:53;157.57;;;6.40;;
5630;SDS011;2837;50.990;7.124;2023-02-27T16:18:46;158.07;;;7.27;;
5630;SDS011;2837;50.990;7.124;2023-02-27T16:21:17;158.07;;;6.97;;
5630;SDS011;2837;50.990;7.124;2023-02-27T16:23:45;159.70;;;6.70;;
5630;SDS011;2837;50.990;7.124;2023-02-27T16:26:29;157.27;;;7.10;;
5630;SDS011;2837;50.990;7.124;2023-02-27T16:29:04;156.87;;;6.30;;
5630;SDS011;2837;50.990;7.124;2023-02-27T16:31:45;157.77;;;7.23;;
5630;SDS011;2837;50.990;7.124;2023-02-27T16:36:40;159.43;;;7.23;;
5630;SDS011;2837;50.990;7.124;2023-02-27T16:39:26;158.13;;;6.90;;
5630;SDS011;2837;50.990;7.124;2023-02-27T16:41:52;157.80;;;6.50;;
5630;SDS011;2837;50.990;7.124;2023-02-27T16:44:19;157.00;;;6.60;;
5630;SDS011;2837;50.990;7.124;2023-02-27T16:46:45;158.20;;;7.00;;
5630;SDS011;2837;50.990;7.124;2023-02-27T16:49:17;158.63;;;7.27;;
5630;SDS011;2837;50.990;7.124;2023-02-27T16:51:43;158.20;;;7.17;;
5630;SDS011;2837;50.990;7.124;2023-02-27T16:54:09;160.07;;;7.33;;
5630;SDS011;2837;50.990;7.124;2023-02-27T16:56:35;157.83;;;7.10;;
5630;SDS011;2837;50.990;7.124;2023-02-27T16:59:01;157.30;;;6.90;;
5630;SDS011;2837;50.990;7.124;2023-02-27T17:01:27;158.13;;;7.40;;
5630;SDS011;2837;50.990;7.124;2023-02-27T17:03:52;157.60;;;6.80;;
5630;SDS011;2837;50.990;7.124;2023-02-27T17:06:18;160.20;;;7.30;;
5630;SDS011;2837;50.990;7.124;2023-02-27T17:08:43;158.07;;;6.93;;
5630;SDS011;2837;50.990;7.124;2023-02-27T17:11:09;159.27;;;7.50;;
5630;SDS011;2837;50.990;7.124;2023-02-27T17:13:35;159.47;;;7.27;;
5630;SDS011;2837;50.990;7.124;2023-02-27T17:16:01;158.20;;;7.30;;
5630;SDS011;2837;50.990;7.124;2023-02-27T17:18:27;158.23;;;7.13;;
5630;SDS011;2837;50.990;7.124;2023-02-27T17:20:54;160.37;;;7.60;;
5630;SDS011;2837;50.990;7.124;2023-02-27T17:23:21;160.37;;;7.40;;
5630;SDS011;2837;50.990;7.124;2023-02-27T17:25:47;159.27;;;7.30;;
5630;SDS011;2837;50.990;7.124;2023-02-27T17:28:12;158.37;;;7.20;;
5630;SDS011;2837;50.990;7.124;2023-02-27T17:30:39;157.67;;;6.90;;
5630;SDS011;2837;50.990;7.124;2023-02-27T17:33:05;159.77;;;7.10;;
5630;SDS011;2837;50.990;7.124;2023-02-27T17:35:31;158.07;;;7.07;;
5630;SDS011;2837;50.990;7.124;2023-02-27T17:37:57;160.10;;;7.27;;
5630;SDS011;2837;50.990;7.124;2023-02-27T17:40:26;160.70;;;7.63;;
5630;SDS011;2837;50.990;7.124;2023-02-27T17:42:51;160.63;;;7.50;;
5630;SDS011;2837;50.990;7.124;2023-02-27T17:45:17;157.60;;;6.80;;
5630;SDS011;2837;50.990;7.124;2023-02-27T17:47:45;159.83;;;7.87;;
5630;SDS011;2837;50.990;7.124;2023-02-27T17:50:12;158.87;;;6.80;;
5630;SDS011;2837;50.990;7.124;2023-02-27T17:52:38;158.17;;;7.13;;
5630;SDS011;2837;50.990;7.124;2023-02-27T17:55:04;159.13;;;7.37;;
5630;SDS011;2837;50.990;7.124;2023-02-27T17:57:35;159.90;;;7.57;;
5630;SDS011;2837;50.990;7.124;2023-02-27T18:00:05;157.90;;;7.10;;
5630;SDS011;2837;50.990;7.124;2023-02-27T18:02:33;159.17;;;7.87;;
5630;SDS011;2837;50.990;7.124;2023-02-27T18:04:59;158.60;;;7.70;;
5630;SDS011;2837;50.990;7.124;2023-02-27T18:07:25;161.57;;;7.70;;
5630;SDS011;2837;50.990;7.124;2023-02-27T18:09:51;160.63;;;7.43;;
5630;SDS011;2837;50.990;7.124;2023-02-27T18:12:17;158.57;;;7.30;;
5630;SDS011;2837;50.990;7.124;2023-02-27T18:14:42;159.40;;;7.43;;
5630;SDS011;2837;50.990;7.124;2023-02-27T18:17:08;160.17;;;8.03;;
5630;SDS011;2837;50.990;7.124;2023-02-27T18:19:40;160.93;;;8.10;;
5630;SDS011;2837;50.990;7.124;2023-02-27T18:22:07;161.43;;;8.27;;
5630;SDS011;2837;50.990;7.124;2023-02-27T18:24:34;160.80;;;8.00;;
5630;SDS011;2837;50.990;7.124;2023-02-27T18:27:00;159.20;;;7.40;;
5630;SDS011;2837;50.990;7.124;2023-02-27T18:29:25;159.23;;;7.70;;
5630;SDS011;2837;50.990;7.124;2023-02-27T18:31:51;159.57;;;7.53;;
5630;SDS011;2837;50.990;7.124;2023-02-27T18:34:19;159.43;;;7.57;;
5630;SDS011;2837;50.990;7.124;2023-02-27T18:36:45;159.53;;;7.93;;
5630;SDS011;2837;50.990;7.124;2023-02-27T18:39:11;161.60;;;8.23;;
5630;SDS011;2837;50.990;7.124;2023-02-27T18:41:37;160.27;;;7.50;;
5630;SDS011;2837;50.990;7.124;2023-02-27T18:44:03;161.30;;;7.43;;
5630;SDS011;2837;50.990;7.124;2023-02-27T18:46:30;159.97;;;7.40;;
5630;SDS011;2837;50.990;7.124;2023-02-27T18:48:56;160.07;;;8.30;;
5630;SDS011;2837;50.990;7.124;2023-02-27T18:51:22;159.13;;;7.73;;
5630;SDS011;2837;50.990;7.124;2023-02-27T18:53:48;160.63;;;8.47;;
5630;SDS011;2837;50.990;7.124;2023-02-27T18:56:15;159.00;;;7.70;;
5630;SDS011;2837;50.990;7.124;2023-02-27T18:58:42;163.07;;;7.83;;
5630;SDS011;2837;50.990;7.124;2023-02-27T19:01:16;159.37;;;7.20;;
5630;SDS011;2837;50.990;7.124;2023-02-27T19:03:43;159.17;;;7.73;;
5630;SDS011;2837;50.990;7.124;2023-02-27T19:06:09;160.50;;;7.57;;
5630;SDS011;2837;50.990;7.124;2023-02-27T19:08:34;160.07;;;7.70;;
5630;SDS011;2837;50.990;7.124;2023-02-27T19:11:00;161.47;;;8.47;;
5630;SDS011;2837;50.990;7.124;2023-02-27T19:13:25;161.97;;;8.50;;
5630;SDS011;2837;50.990;7.124;2023-02-27T19:15:51;160.87;;;7.97;;
5630;SDS011;2837;50.990;7.124;2023-02-27T19:18:18;161.07;;;8.47;;
5630;SDS011;2837;50.990;7.124;2023-02-27T19:20:43;159.67;;;7.70;;
5630;SDS011;2837;50.990;7.124;2023-02-27T19:23:09;159.53;;;7.93;;
5630;SDS011;2837;50.990;7.124;2023-02-27T19:25:34;163.50;;;8.30;;
5630;SDS011;2837;50.990;7.124;2023-02-27T19:28:00;159.47;;;7.17;;
5630;SDS011;2837;50.990;7.124;2023-02-27T19:30:26;160.70;;;7.70;;
5630;SDS011;2837;50.990;7.124;2023-02-27T19:32:52;160.37;;;8.13;;
5630;SDS011;2837;50.990;7.124;2023-02-27T19:35:18;161.87;;;7.73;;
5630;SDS011;2837;50.990;7.124;2023-02-27T19:37:44;162.33;;;8.10;;
5630;SDS011;2837;50.990;7.124;2023-02-27T19:40:19;166.47;;;10.20;;
5630;SDS011;2837;50.990;7.124;2023-02-27T19:42:48;162.97;;;9.43;;
5630;SDS011;2837;50.990;7.124;2023-02-27T19:45:14;161.47;;;8.33;;
5630;SDS011;2837;50.990;7.124;2023-02-27T19:47:39;162.17;;;8.30;;
5630;SDS011;2837;50.990;7.124;2023-02-27T19:50:05;161.73;;;8.23;;
5630;SDS011;2837;50.990;7.124;2023-02-27T19:52:33;163.07;;;7.60;;
5630;SDS011;2837;50.990;7.124;2023-02-27T19:54:59;163.00;;;8.23;;
5630;SDS011;2837;50.990;7.124;2023-02-27T19:57:25;162.07;;;8.10;;
5630;SDS011;2837;50.990;7.124;2023-02-27T19:59:50;163.37;;;7.90;;
5630;SDS011;2837;50.990;7.124;2023-02-27T20:02:16;164.40;;;9.10;;
5630;SDS011;2837;50.990;7.124;2023-02-27T20:04:41;165.80;;;9.63;;
5630;SDS011;2837;50.990;7.124;2023-02-27T20:07:08;166.67;;;9.00;;
5630;SDS011;2837;50.990;7.124;2023-02-27T20:09:34;164.03;;;8.70;;
5630;SDS011;2837;50.990;7.124;2023-02-27T20:12:00;163.60;;;8.63;;
5630;SDS011;2837;50.990;7.124;2023-02-27T20:14:26;161.97;;;7.83;;
5630;SDS011;2837;50.990;7.124;2023-02-27T20:16:52;163.10;;;9.27;;
5630;SDS011;2837;50.990;7.124;2023-02-27T20:19:18;162.60;;;9.27;;
5630;SDS011;2837;50.990;7.124;2023-02-27T20:21:45;167.27;;;11.50;;
5630;SDS011;2837;50.990;7.124;2023-02-27T20:24:11;163.73;;;9.60;;
5630;SDS011;2837;50.990;7.124;2023-02-27T20:26:42;162.10;;;8.50;;
5630;SDS011;2837;50.990;7.124;2023-02-27T20:29:16;163.70;;;8.70;;
5630;SDS011;2837;50.990;7.124;2023-02-27T20:31:44;164.97;;;8.50;;
5630;SDS011;2837;50.990;7.124;2023-02-27T20:34:11;163.17;;;9.43;;
5630;SDS011;2837;50.990;7.124;2023-02-27T20:36:39;163.37;;;8.37;;
5630;SDS011;2837;50.990;7.124;2023-02-27T20:39:06;163.17;;;8.17;;
5630;SDS011;2837;50.990;7.124;2023-02-27T20:41:34;162.77;;;8.70;;
5630;SDS011;2837;50.990;7.124;2023-02-27T20:44:01;162.27;;;8.10;;
5630;SDS011;2837;50.990;7.124;2023-02-27T20:46:27;161.17;;;7.63;;
5630;SDS011;2837;50.990;7.124;2023-02-27T20:48:54;160.97;;;7.70;;
5630;SDS011;2837;50.990;7.124;2023-02-27T20:51:24;162.60;;;7.90;;
5630;SDS011;2837;50.990;7.124;2023-02-27T20:53:51;160.87;;;7.30;;
5630;SDS011;2837;50.990;7.124;2023-02-27T20:56:18;162.33;;;8.30;;
5630;SDS011;2837;50.990;7.124;2023-02-27T20:58:45;161.53;;;7.67;;
5630;SDS011;2837;50.990;7.124;2023-02-27T21:01:11;163.07;;;8.23;;
5630;SDS011;2837;50.990;7.124;2023-02-27T21:03:38;161.70;;;8.10;;
5630;SDS011;2837;50.990;7.124;2023-02-27T21:06:06;161.97;;;7.70;;
5630;SDS011;2837;50.990;7.124;2023-02-27T21:08:36;162.57;;;8.00;;
5630;SDS011;2837;50.990;7.124;2023-02-27T21:11:06;162.67;;;7.70;;
5630;SDS011;2837;50.990;7.124;2023-02-27T21:13:37;165.27;;;7.60;;
5630;SDS011;2837;50.990;7.124;2023-02-27T21:16:04;161.47;;;7.30;;
5630;SDS011;2837;50.990;7.124;2023-02-27T21:18:32;161.97;;;7.67;;
5630;SDS011;2837;50.990;7.124;2023-02-27T21:21:05;161.97;;;7.97;;
5630;SDS011;2837;50.990;7.124;2023-02-27T21:23:32;161.77;;;7.90;;
5630;SDS011;2837;50.990;7.124;2023-02-27T21:25:58;161.80;;;7.90;;
5630;SDS011;2837;50.990;7.124;2023-02-27T21:28:24;166.03;;;7.93;;
5630;SDS011;2837;50.990;7.124;2023-02-27T21:30:49;160.80;;;7.47;;
5630;SDS011;2837;50.990;7.124;2023-02-27T21:33:19;161.37;;;7.40;;
5630;SDS011;2837;50.990;7.124;2023-02-27T21:35:47;161.13;;;7.57;;
5630;SDS011;2837;50.990;7.124;2023-02-27T21:38:13;161.63;;;7.50;;
5630;SDS011;2837;50.990;7.124;2023-02-27T21:40:40;162.17;;;7.77;;
5630;SDS011;2837;50.990;7.124;2023-02-27T21:43:05;161.87;;;7.80;;
5630;SDS011;2837;50.990;7.124;2023-02-27T21:45:31;163.77;;;8.10;;
5630;SDS011;2837;50.990;7.124;2023-02-27T21:47:57;164.23;;;8.13;;
5630;SDS011;2837;50.990;7.124;2023-02-27T21:50:23;163.47;;;8.30;;
5630;SDS011;2837;50.990;7.124;2023-02-27T21:52:48;167.67;;;9.03;;
5630;SDS011;2837;50.990;7.124;2023-02-27T21:55:14;163.23;;;9.07;;
5630;SDS011;2837;50.990;7.124;2023-02-27T21:57:40;169.93;;;10.20;;
